createdAt,value
2023-11-23T00:00:11.177Z,56.77
2023-11-23T00:02:39.929Z,57.33
2023-11-23T00:05:08.550Z,57.47
2023-11-23T00:07:36.178Z,57.31
2023-11-23T00:10:06.681Z,57.46
2023-11-23T00:12:34.330Z,57.31
2023-11-23T00:15:02.276Z,57.51
2023-11-23T00:17:31.845Z,57.92
2023-11-23T00:20:00.059Z,57.89
2023-11-23T00:22:27.786Z,57.26
2023-11-23T00:24:55.601Z,57.18
2023-11-23T00:27:23.098Z,57.16
2023-11-23T00:29:50.741Z,56.96
2023-11-23T00:32:20.236Z,57.21
2023-11-23T00:34:47.858Z,56.94
2023-11-23T00:37:15.761Z,57.43
2023-11-23T00:39:43.917Z,57.37
2023-11-23T00:42:11.525Z,56.94
2023-11-23T00:44:39.129Z,56.76
2023-11-23T00:47:07.598Z,56.54
2023-11-23T00:49:36.084Z,56.45
2023-11-23T00:52:03.657Z,56.36
2023-11-23T00:54:38.853Z,56.16
2023-11-23T00:57:09.461Z,55.86
2023-11-23T00:59:37.609Z,56.04
2023-11-23T01:02:05.490Z,55.87
2023-11-23T01:04:33.056Z,56.10
2023-11-23T01:07:01.966Z,56.38
2023-11-23T01:09:29.338Z,56.28
2023-11-23T01:11:56.808Z,56.50
2023-11-23T01:14:25.128Z,56.38
2023-11-23T01:16:52.697Z,56.26
2023-11-23T01:19:20.070Z,57.04
2023-11-23T01:21:47.789Z,58.63
2023-11-23T01:24:15.300Z,59.34
2023-11-23T01:26:42.809Z,59.57
2023-11-23T01:29:10.572Z,59.29
2023-11-23T01:31:37.948Z,60.08
2023-11-23T01:34:05.586Z,61.03
2023-11-23T01:36:33.374Z,61.07
2023-11-23T01:39:00.838Z,61.74
2023-11-23T01:41:28.493Z,62.04
2023-11-23T01:43:56.355Z,62.32
2023-11-23T01:46:23.750Z,62.17
2023-11-23T01:48:51.705Z,62.80
2023-11-23T01:51:19.653Z,62.96
2023-11-23T01:53:47.450Z,62.65
2023-11-23T01:56:15.404Z,61.98
2023-11-23T01:58:43.504Z,60.64
2023-11-23T02:01:10.899Z,60.65
2023-11-23T02:03:39.247Z,59.86
2023-11-23T02:06:06.953Z,58.98
2023-11-23T02:08:35.357Z,59.06
2023-11-23T02:11:03.088Z,58.33
2023-11-23T02:13:31.912Z,58.50
2023-11-23T02:15:59.622Z,58.00
2023-11-23T02:18:27.243Z,57.70
2023-11-23T02:20:55.301Z,57.55
2023-11-23T02:23:23.031Z,57.60
2023-11-23T02:25:50.506Z,57.00
2023-11-23T02:28:17.916Z,56.62
2023-11-23T02:30:45.959Z,56.89
2023-11-23T02:33:13.433Z,56.93
2023-11-23T02:35:41.023Z,56.67
2023-11-23T02:38:08.752Z,56.44
2023-11-23T02:40:36.187Z,56.06
2023-11-23T02:43:07.851Z,55.76
2023-11-23T02:45:35.861Z,55.63
2023-11-23T02:48:06.064Z,55.42
2023-11-23T02:50:34.867Z,55.41
2023-11-23T02:53:02.586Z,55.96
2023-11-23T02:55:30.029Z,56.85
2023-11-23T02:57:57.425Z,57.19
2023-11-23T03:00:25.206Z,57.03
2023-11-23T03:02:53.746Z,56.43
2023-11-23T03:05:21.203Z,57.05
2023-11-23T03:07:48.911Z,57.02
2023-11-23T03:10:16.990Z,56.75
2023-11-23T03:12:44.407Z,56.62
2023-11-23T03:15:12.238Z,56.44
2023-11-23T03:17:39.861Z,56.27
2023-11-23T03:20:07.639Z,56.10
2023-11-23T03:22:35.276Z,55.80
2023-11-23T03:25:02.697Z,55.63
2023-11-23T03:27:30.466Z,55.54
2023-11-23T03:29:58.202Z,55.47
2023-11-23T03:32:30.816Z,55.45
2023-11-23T03:35:01.851Z,55.23
2023-11-23T03:37:29.302Z,55.34
2023-11-23T03:39:58.431Z,55.40
2023-11-23T03:42:26.320Z,55.53
2023-11-23T03:44:53.978Z,55.96
2023-11-23T03:47:21.393Z,56.08
2023-11-23T03:49:49.128Z,56.26
2023-11-23T03:52:16.577Z,56.10
2023-11-23T03:54:44.091Z,56.33
2023-11-23T03:57:13.126Z,56.04
2023-11-23T03:59:40.562Z,56.34
2023-11-23T04:02:08.322Z,56.71
2023-11-23T04:04:36.206Z,56.67
2023-11-23T04:07:03.928Z,56.22
2023-11-23T04:09:31.296Z,55.93
2023-11-23T04:11:59.092Z,56.07
2023-11-23T04:14:29.066Z,55.87
2023-11-23T04:16:56.505Z,56.89
2023-11-23T04:19:24.285Z,56.29
2023-11-23T04:21:51.700Z,56.17
2023-11-23T04:24:19.846Z,56.02
2023-11-23T04:26:47.586Z,56.41
2023-11-23T04:29:15.039Z,56.16
2023-11-23T04:31:42.438Z,56.69
2023-11-23T04:34:10.187Z,56.44
2023-11-23T04:36:40.578Z,56.52
2023-11-23T04:39:09.140Z,56.32
2023-11-23T04:41:37.915Z,56.14
2023-11-23T04:44:05.674Z,56.13
2023-11-23T04:46:34.080Z,55.97
2023-11-23T04:49:01.788Z,55.76
2023-11-23T04:51:29.133Z,55.95
2023-11-23T04:53:57.925Z,55.63
2023-11-23T04:56:25.786Z,55.82
2023-11-23T04:58:53.188Z,55.56
2023-11-23T05:01:20.721Z,55.80
2023-11-23T05:03:48.617Z,56.33
2023-11-23T05:06:16.516Z,55.70
2023-11-23T05:08:44.266Z,55.80
2023-11-23T05:11:13.135Z,55.59
2023-11-23T05:13:40.990Z,55.64
2023-11-23T05:16:08.815Z,55.31
2023-11-23T05:18:36.658Z,55.40
2023-11-23T05:21:05.476Z,55.16
2023-11-23T05:23:32.958Z,54.82
2023-11-23T05:26:00.667Z,54.96
2023-11-23T05:28:28.287Z,54.94
2023-11-23T05:30:55.655Z,55.02
2023-11-23T05:33:25.930Z,55.25
2023-11-23T05:35:53.694Z,55.34
2023-11-23T05:38:21.064Z,55.31
2023-11-23T05:40:48.755Z,55.18
2023-11-23T05:43:19.850Z,55.27
2023-11-23T05:45:47.446Z,55.34
2023-11-23T05:48:15.137Z,55.88
2023-11-23T05:50:42.681Z,56.29
2023-11-23T05:53:10.079Z,55.82
2023-11-23T05:55:37.746Z,56.16
2023-11-23T05:58:05.158Z,56.17
2023-11-23T06:00:32.582Z,55.89
2023-11-23T06:03:00.313Z,55.80
2023-11-23T06:05:28.699Z,55.72
2023-11-23T06:07:56.273Z,56.00
2023-11-23T06:10:25.740Z,55.59
2023-11-23T06:12:54.167Z,55.97
2023-11-23T06:15:21.744Z,55.80
2023-11-23T06:17:55.709Z,55.63
2023-11-23T06:20:29.027Z,55.61
2023-11-23T06:22:56.726Z,55.44
2023-11-23T06:25:25.706Z,55.55
2023-11-23T06:27:59.013Z,55.68
2023-11-23T06:30:32.870Z,56.69
2023-11-23T06:33:00.749Z,56.41
2023-11-23T06:35:28.146Z,55.99
2023-11-23T06:37:55.814Z,56.04
2023-11-23T06:40:23.287Z,56.13
2023-11-23T06:42:50.698Z,60.10
2023-11-23T06:45:19.343Z,57.97
2023-11-23T06:47:48.145Z,56.53
2023-11-23T06:50:15.871Z,56.13
2023-11-23T06:52:43.576Z,55.82
2023-11-23T06:55:11.106Z,55.76
2023-11-23T06:57:40.977Z,55.72
2023-11-23T07:00:23.158Z,55.93
2023-11-23T07:02:51.802Z,56.33
2023-11-23T07:05:22.681Z,56.37
2023-11-23T07:07:50.153Z,56.68
2023-11-23T07:10:22.875Z,57.34
2023-11-23T07:12:51.264Z,57.95
2023-11-23T07:15:19.483Z,57.54
2023-11-23T07:17:48.134Z,56.86
2023-11-23T07:20:16.183Z,56.79
2023-11-23T07:22:43.654Z,56.66
2023-11-23T07:25:11.433Z,56.50
2023-11-23T07:27:39.335Z,56.21
2023-11-23T07:30:07.863Z,56.11
2023-11-23T07:32:37.052Z,56.91
2023-11-23T07:35:06.146Z,56.90
2023-11-23T07:37:35.365Z,56.65
2023-11-23T07:40:14.206Z,56.24
2023-11-23T07:42:43.775Z,55.53
2023-11-23T07:45:12.160Z,55.65
2023-11-23T07:47:42.691Z,55.95
2023-11-23T07:50:17.066Z,56.55
2023-11-23T07:52:45.214Z,57.00
2023-11-23T07:55:19.055Z,56.47
2023-11-23T07:57:55.287Z,55.92
2023-11-23T08:00:23.131Z,55.58
2023-11-23T08:02:51.002Z,55.51
2023-11-23T08:05:18.940Z,55.29
2023-11-23T08:07:47.304Z,56.14
2023-11-23T08:10:16.851Z,56.00
2023-11-23T08:12:44.439Z,56.85
2023-11-23T08:15:12.026Z,56.40
2023-11-23T08:17:44.154Z,56.07
2023-11-23T08:20:15.752Z,55.58
2023-11-23T08:22:43.475Z,55.37
2023-11-23T08:25:12.152Z,55.31
2023-11-23T08:27:39.723Z,55.13
2023-11-23T08:30:07.994Z,55.79
2023-11-23T08:32:35.469Z,55.24
2023-11-23T08:35:04.575Z,55.22
2023-11-23T08:37:32.351Z,55.07
2023-11-23T08:40:00.471Z,54.34
2023-11-23T08:42:27.993Z,54.21
2023-11-23T08:44:56.089Z,53.52
2023-11-23T08:47:23.526Z,53.78
2023-11-23T08:49:50.944Z,53.29
2023-11-23T08:52:18.642Z,53.58
2023-11-23T08:54:46.154Z,54.19
2023-11-23T08:57:13.597Z,53.54
2023-11-23T08:59:41.227Z,52.83
2023-11-23T09:02:17.403Z,53.09
2023-11-23T09:04:49.847Z,53.12
2023-11-23T09:07:18.612Z,53.08
2023-11-23T09:09:47.944Z,53.29
2023-11-23T09:12:15.672Z,53.27
2023-11-23T09:14:49.152Z,54.25
2023-11-23T09:17:18.522Z,53.97
2023-11-23T09:19:49.165Z,54.08
2023-11-23T09:22:16.574Z,53.89
2023-11-23T09:24:44.225Z,53.90
2023-11-23T09:27:12.296Z,53.80
2023-11-23T09:29:39.856Z,54.74
2023-11-23T09:32:08.304Z,54.45
2023-11-23T09:34:35.956Z,54.10
2023-11-23T09:37:03.384Z,53.78
2023-11-23T09:39:31.147Z,54.14
2023-11-23T09:41:59.794Z,54.64
2023-11-23T09:44:27.561Z,54.61
2023-11-23T09:46:57.461Z,54.46
2023-11-23T09:49:25.854Z,54.16
2023-11-23T09:51:56.512Z,54.36
2023-11-23T09:54:27.770Z,54.79
2023-11-23T09:56:55.684Z,55.19
2023-11-23T09:59:24.672Z,53.80
2023-11-23T10:01:56.184Z,53.19
2023-11-23T10:04:24.077Z,54.34
2023-11-23T10:06:51.661Z,53.45
2023-11-23T10:09:19.241Z,53.10
2023-11-23T10:11:48.181Z,52.36
2023-11-23T10:14:17.107Z,52.83
2023-11-23T10:16:44.653Z,53.09
2023-11-23T10:19:22.324Z,53.08
2023-11-23T10:21:50.032Z,58.62
2023-11-23T10:24:17.907Z,54.84
2023-11-23T10:26:45.542Z,53.51
2023-11-23T10:29:14.076Z,53.43
2023-11-23T10:31:41.787Z,58.35
2023-11-23T10:34:09.761Z,53.21
2023-11-23T10:36:39.976Z,51.85
2023-11-23T10:39:12.464Z,51.50
2023-11-23T10:41:40.684Z,51.08
2023-11-23T10:44:09.367Z,51.20
2023-11-23T10:46:39.894Z,52.93
2023-11-23T10:49:08.407Z,51.42
2023-11-23T10:51:36.255Z,51.32
2023-11-23T10:54:04.248Z,50.49
2023-11-23T10:56:33.231Z,51.49
2023-11-23T10:59:04.366Z,55.03
2023-11-23T11:01:33.117Z,50.38
2023-11-23T11:04:00.892Z,50.63
2023-11-23T11:06:39.524Z,51.13
2023-11-23T11:09:17.467Z,51.51
2023-11-23T11:11:46.672Z,51.05
2023-11-23T11:14:17.261Z,51.02
2023-11-23T11:16:44.748Z,51.85
2023-11-23T11:19:12.825Z,50.97
2023-11-23T11:21:48.372Z,50.93
2023-11-23T11:24:22.879Z,50.64
2023-11-23T11:26:51.457Z,50.30
2023-11-23T11:29:19.242Z,51.08
2023-11-23T11:31:50.602Z,50.60
2023-11-23T11:34:20.431Z,50.19
2023-11-23T11:36:55.497Z,50.49
2023-11-23T11:39:23.533Z,50.72
2023-11-23T11:41:57.966Z,50.69
2023-11-23T11:44:34.915Z,50.22
2023-11-23T11:47:04.026Z,50.54
2023-11-23T11:49:31.749Z,50.06
2023-11-23T11:51:59.344Z,50.97
2023-11-23T11:54:26.848Z,50.35
2023-11-23T11:56:54.570Z,50.36
2023-11-23T11:59:22.630Z,50.81
2023-11-23T12:01:50.659Z,50.36
2023-11-23T12:04:20.937Z,50.54
2023-11-23T12:06:53.834Z,50.78
2023-11-23T12:09:33.987Z,50.29
2023-11-23T12:12:07.088Z,50.36
2023-11-23T12:14:35.934Z,50.82
2023-11-23T12:17:13.639Z,50.16
2023-11-23T12:19:55.390Z,49.96
2023-11-23T12:22:24.497Z,50.17
2023-11-23T12:24:52.959Z,49.99
2023-11-23T12:27:22.162Z,49.63
2023-11-23T12:29:50.237Z,50.67
2023-11-23T12:32:18.431Z,49.89
2023-11-23T12:34:45.889Z,49.46
2023-11-23T12:37:13.378Z,49.56
2023-11-23T12:39:41.116Z,49.79
2023-11-23T12:42:08.584Z,50.01
2023-11-23T12:44:36.636Z,49.54
2023-11-23T12:47:04.979Z,50.94
2023-11-23T12:49:32.501Z,51.40
2023-11-23T12:52:02.203Z,51.03
2023-11-23T12:54:31.540Z,51.66
2023-11-23T12:56:59.301Z,52.24
2023-11-23T12:59:26.759Z,50.40
2023-11-23T13:01:56.726Z,50.99
2023-11-23T13:04:25.913Z,56.30
2023-11-23T13:06:53.763Z,53.29
2023-11-23T13:09:25.502Z,48.62
2023-11-23T13:11:54.894Z,48.20
2023-11-23T13:14:23.180Z,47.92
2023-11-23T13:16:50.901Z,47.75
2023-11-23T13:19:27.018Z,47.94
2023-11-23T13:22:03.993Z,48.13
2023-11-23T13:24:31.864Z,48.14
2023-11-23T13:26:59.763Z,48.64
2023-11-23T13:29:27.430Z,48.18
2023-11-23T13:31:58.669Z,47.89
2023-11-23T13:34:27.248Z,47.89
2023-11-23T13:36:55.231Z,48.47
2023-11-23T13:39:22.901Z,48.17
2023-11-23T13:41:50.919Z,48.87
2023-11-23T13:44:19.279Z,48.69
2023-11-23T13:46:46.848Z,49.19
2023-11-23T13:49:17.676Z,49.90
2023-11-23T13:51:46.383Z,49.98
2023-11-23T13:54:14.666Z,49.93
2023-11-23T13:56:43.816Z,49.71
2023-11-23T13:59:12.505Z,49.18
2023-11-23T14:01:40.951Z,49.32
2023-11-23T14:04:09.535Z,49.22
2023-11-23T14:06:37.132Z,49.44
2023-11-23T14:09:05.140Z,49.78
2023-11-23T14:11:36.075Z,49.33
2023-11-23T14:14:06.566Z,49.48
2023-11-23T14:16:36.146Z,50.19
2023-11-23T14:19:07.006Z,49.66
2023-11-23T14:21:34.802Z,49.86
2023-11-23T14:24:02.220Z,50.10
2023-11-23T14:26:30.331Z,50.10
2023-11-23T14:28:58.241Z,49.79
2023-11-23T14:31:25.945Z,49.89
2023-11-23T14:33:56.153Z,49.99
2023-11-23T14:36:23.936Z,50.74
2023-11-23T14:38:53.198Z,50.57
2023-11-23T14:41:23.666Z,50.94
2023-11-23T14:43:51.525Z,50.78
2023-11-23T14:46:19.073Z,50.23
2023-11-23T14:48:46.633Z,50.21
2023-11-23T14:51:14.726Z,50.53
2023-11-23T14:53:44.262Z,50.40
2023-11-23T14:56:11.685Z,50.20
2023-11-23T14:58:40.027Z,51.22
2023-11-23T15:01:07.582Z,50.91
2023-11-23T15:03:36.141Z,50.79
2023-11-23T15:06:04.363Z,50.32
2023-11-23T15:08:31.819Z,50.23
2023-11-23T15:10:59.523Z,50.70
2023-11-23T15:13:35.823Z,51.01
2023-11-23T15:16:06.874Z,51.14
2023-11-23T15:18:34.993Z,51.13
2023-11-23T15:21:02.515Z,51.19
2023-11-23T15:23:31.091Z,51.18
2023-11-23T15:25:58.741Z,51.50
2023-11-23T15:28:26.926Z,51.08
2023-11-23T15:30:54.609Z,51.71
2023-11-23T15:33:22.814Z,51.23
2023-11-23T15:35:50.662Z,51.11
2023-11-23T15:38:18.297Z,50.78
2023-11-23T15:40:46.440Z,50.85
2023-11-23T15:43:13.857Z,50.73
2023-11-23T15:45:43.472Z,51.04
2023-11-23T15:48:12.252Z,51.74
2023-11-23T15:50:41.649Z,51.68
2023-11-23T15:53:10.323Z,51.73
2023-11-23T15:55:39.391Z,52.13
2023-11-23T15:58:06.936Z,52.28
2023-11-23T16:00:34.680Z,52.92
2023-11-23T16:03:02.500Z,52.79
2023-11-23T16:05:30.374Z,52.68
2023-11-23T16:07:57.993Z,52.47
2023-11-23T16:10:25.830Z,52.45
2023-11-23T16:12:53.503Z,52.52
2023-11-23T16:15:20.981Z,54.56
2023-11-23T16:17:50.116Z,52.80
2023-11-23T16:20:19.816Z,52.62
2023-11-23T16:22:48.043Z,52.32
2023-11-23T16:25:17.053Z,52.45
2023-11-23T16:27:45.894Z,52.51
2023-11-23T16:30:15.108Z,52.91
2023-11-23T16:32:43.734Z,55.58
2023-11-23T16:35:14.254Z,55.61
2023-11-23T16:37:41.817Z,53.59
2023-11-23T16:40:13.299Z,52.77
2023-11-23T16:42:42.610Z,52.76
2023-11-23T16:45:11.265Z,52.65
2023-11-23T16:47:40.205Z,52.64
2023-11-23T16:50:11.827Z,52.95
2023-11-23T16:52:40.176Z,53.13
2023-11-23T16:55:09.484Z,52.87
2023-11-23T16:57:37.519Z,53.16
2023-11-23T17:00:09.348Z,53.20
2023-11-23T17:02:37.330Z,52.96
2023-11-23T17:05:10.148Z,53.55
2023-11-23T17:07:40.513Z,53.63
2023-11-23T17:10:09.021Z,53.50
2023-11-23T17:12:37.109Z,53.19
2023-11-23T17:15:06.124Z,53.67
2023-11-23T17:17:34.078Z,53.50
2023-11-23T17:20:01.723Z,53.68
2023-11-23T17:22:33.416Z,53.50
2023-11-23T17:25:02.542Z,53.85
2023-11-23T17:27:29.990Z,54.11
2023-11-23T17:29:57.436Z,53.97
2023-11-23T17:32:25.320Z,53.77
2023-11-23T17:34:52.864Z,53.90
2023-11-23T17:37:20.286Z,54.11
2023-11-23T17:39:48.009Z,54.54
2023-11-23T17:42:15.440Z,54.77
2023-11-23T17:44:42.829Z,55.00
2023-11-23T17:47:12.067Z,54.53
2023-11-23T17:49:39.451Z,54.56
2023-11-23T17:52:06.876Z,54.87
2023-11-23T17:54:34.567Z,54.71
2023-11-23T17:57:02.896Z,54.86
2023-11-23T17:59:43.296Z,54.96
2023-11-23T18:02:19.036Z,54.93
2023-11-23T18:04:52.698Z,55.06
2023-11-23T18:07:20.641Z,55.55
2023-11-23T18:09:48.775Z,55.53
2023-11-23T18:12:16.231Z,55.30
2023-11-23T18:14:43.719Z,55.69
2023-11-23T18:17:12.545Z,55.92
2023-11-23T18:19:40.121Z,56.16
2023-11-23T18:22:08.958Z,56.64
2023-11-23T18:24:37.004Z,70.56
2023-11-23T18:27:07.264Z,63.76
2023-11-23T18:29:36.631Z,56.00
2023-11-23T18:32:04.641Z,53.88
2023-11-23T18:34:34.891Z,53.74
2023-11-23T18:37:02.297Z,53.97
2023-11-23T18:39:30.038Z,54.26
2023-11-23T18:41:59.176Z,54.37
2023-11-23T18:44:26.582Z,54.47
2023-11-23T18:46:55.701Z,54.61
2023-11-23T18:49:28.909Z,55.07
2023-11-23T18:51:56.662Z,55.07
2023-11-23T18:54:25.135Z,55.35
2023-11-23T18:56:55.002Z,55.72
2023-11-23T18:59:22.681Z,55.87
2023-11-23T19:01:50.466Z,56.01
2023-11-23T19:04:18.536Z,55.93
2023-11-23T19:06:46.605Z,56.29
2023-11-23T19:09:15.378Z,56.30
2023-11-23T19:11:42.877Z,56.27
2023-11-23T19:14:10.636Z,56.14
2023-11-23T19:16:38.275Z,56.12
2023-11-23T19:19:08.648Z,56.19
2023-11-23T19:21:36.951Z,56.19
2023-11-23T19:24:04.951Z,56.23
2023-11-23T19:26:32.990Z,56.48
2023-11-23T19:29:02.351Z,56.46
2023-11-23T19:31:31.953Z,56.29
2023-11-23T19:33:59.877Z,56.44
2023-11-23T19:36:28.532Z,56.57
2023-11-23T19:38:56.480Z,56.43
2023-11-23T19:41:25.758Z,56.14
2023-11-23T19:43:54.431Z,56.09
2023-11-23T19:46:22.009Z,56.20
2023-11-23T19:48:49.698Z,56.21
2023-11-23T19:51:21.457Z,57.09
2023-11-23T19:53:51.534Z,56.92
2023-11-23T19:56:20.670Z,56.94
2023-11-23T19:58:50.045Z,57.61
2023-11-23T20:01:17.813Z,57.69
2023-11-23T20:03:45.550Z,57.68
2023-11-23T20:06:13.010Z,57.81
2023-11-23T20:08:42.080Z,58.26
2023-11-23T20:11:10.619Z,58.16
2023-11-23T20:13:37.998Z,58.25
2023-11-23T20:16:05.817Z,58.34
2023-11-23T20:18:33.700Z,58.04
2023-11-23T20:21:01.302Z,57.61
2023-11-23T20:23:28.874Z,57.31
2023-11-23T20:25:56.621Z,57.71
2023-11-23T20:28:24.024Z,57.41
2023-11-23T20:30:51.455Z,57.50
2023-11-23T20:33:20.528Z,57.70
2023-11-23T20:35:48.543Z,57.68
2023-11-23T20:38:16.202Z,57.47
2023-11-23T20:40:45.923Z,57.54
2023-11-23T20:43:13.338Z,58.27
2023-11-23T20:45:40.830Z,57.33
2023-11-23T20:48:08.537Z,56.85
2023-11-23T20:50:36.255Z,56.26
2023-11-23T20:53:05.501Z,56.16
2023-11-23T20:55:33.607Z,57.57
2023-11-23T20:58:02.708Z,56.55
2023-11-23T21:00:31.381Z,56.31
2023-11-23T21:02:59.795Z,56.36
2023-11-23T21:05:28.368Z,55.95
2023-11-23T21:07:55.979Z,55.80
2023-11-23T21:10:26.958Z,55.85
2023-11-23T21:12:54.369Z,55.80
2023-11-23T21:15:22.003Z,55.88
2023-11-23T21:17:49.727Z,55.29
2023-11-23T21:20:17.141Z,55.54
2023-11-23T21:22:44.833Z,55.38
2023-11-23T21:25:12.608Z,55.44
2023-11-23T21:27:40.114Z,55.53
2023-11-23T21:30:08.738Z,55.57
2023-11-23T21:32:36.851Z,55.21
2023-11-23T21:35:04.511Z,55.22
2023-11-23T21:37:32.120Z,55.06
2023-11-23T21:39:59.826Z,55.15
2023-11-23T21:42:27.261Z,55.08
2023-11-23T21:44:55.793Z,54.90
2023-11-23T21:47:24.201Z,55.29
2023-11-23T21:49:51.842Z,55.06
2023-11-23T21:52:19.547Z,55.40
2023-11-23T21:54:57.176Z,55.47
2023-11-23T21:57:30.795Z,55.32
2023-11-23T21:59:58.562Z,55.44
2023-11-23T22:02:26.040Z,55.55
2023-11-23T22:04:53.784Z,55.58
2023-11-23T22:07:23.434Z,55.30
2023-11-23T22:09:50.862Z,55.44
2023-11-23T22:12:18.599Z,55.87
2023-11-23T22:14:46.035Z,55.75
2023-11-23T22:17:13.733Z,55.65
2023-11-23T22:19:41.692Z,55.63
2023-11-23T22:22:10.266Z,55.51
2023-11-23T22:24:38.770Z,55.66
2023-11-23T22:27:07.109Z,55.86
2023-11-23T22:29:35.087Z,56.15
2023-11-23T22:32:02.952Z,55.83
2023-11-23T22:34:30.812Z,55.92
2023-11-23T22:36:58.999Z,55.96
2023-11-23T22:39:26.688Z,55.85
2023-11-23T22:41:55.976Z,56.10
2023-11-23T22:44:23.778Z,56.07
2023-11-23T22:46:51.963Z,56.00
2023-11-23T22:49:19.656Z,56.32
2023-11-23T22:51:47.105Z,56.12
2023-11-23T22:54:14.560Z,55.96
2023-11-23T22:56:42.200Z,56.12
2023-11-23T22:59:10.318Z,56.29
2023-11-23T23:01:38.345Z,56.10
2023-11-23T23:04:10.921Z,56.10
2023-11-23T23:06:38.406Z,56.06
2023-11-23T23:09:06.043Z,56.24
2023-11-23T23:11:34.555Z,56.46
2023-11-23T23:14:03.802Z,56.65
2023-11-23T23:16:31.546Z,56.72
2023-11-23T23:18:59.086Z,56.97
2023-11-23T23:21:32.089Z,56.84
2023-11-23T23:24:00.032Z,57.04
2023-11-23T23:26:27.439Z,56.82
2023-11-23T23:28:54.865Z,56.99
2023-11-23T23:31:22.554Z,56.82
2023-11-23T23:33:50.387Z,56.88
2023-11-23T23:36:17.873Z,57.09
2023-11-23T23:38:45.571Z,57.06
2023-11-23T23:41:12.983Z,57.23
2023-11-23T23:43:42.362Z,56.88
2023-11-23T23:46:10.117Z,57.16
2023-11-23T23:48:37.635Z,57.03
2023-11-23T23:51:05.062Z,57.23
2023-11-23T23:53:33.203Z,57.16
2023-11-23T23:56:00.866Z,57.20
2023-11-23T23:58:28.278Z,56.89
